sensor_id;sensor_type;location;lat;lon;timestamp;temperature;humidity
16102;DHT22;56411;52.964;10.540;2024-01-30T05:05:20;0.40;99.90
16102;DHT22;56411;52.964;10.540;2024-01-30T05:07:48;0.40;99.90
16102;DHT22;56411;52.964;10.540;2024-01-30T05:10:14;0.50;99.90
16102;DHT22;56411;52.964;10.540;2024-01-30T05:12:52;0.80;99.90
16102;DHT22;56411;52.964;10.540;2024-01-30T05:15:59;1.00;99.90
16102;DHT22;56411;52.964;10.540;2024-01-30T05:18:44;1.10;99.90
16102;DHT22;56411;52.964;10.540;2024-01-30T06:56:49;0.70;99.90
16102;DHT22;56411;52.964;10.540;2024-01-30T07:23:28;0.60;99.90
16102;DHT22;56411;52.964;10.540;2024-01-30T08:47:08;3.00;99.90
16102;DHT22;56411;52.964;10.540;2024-01-30T08:53:02;3.20;99.90
16102;DHT22;56411;52.964;10.540;2024-01-30T09:01:25;3.50;99.90
16102;DHT22;56411;52.964;10.540;2024-01-30T09:27:39;4.80;99.90
16102;DHT22;56411;52.964;10.540;2024-01-30T09:47:19;5.60;99.90
16102;DHT22;56411;52.964;10.540;2024-01-30T09:49:54;5.80;99.90
16102;DHT22;56411;52.964;10.540;2024-01-30T09:55:51;5.70;99.90
16102;DHT22;56411;52.964;10.540;2024-01-30T10:08:42;6.50;99.90
16102;DHT22;56411;52.964;10.540;2024-01-30T10:21:27;7.80;99.90
16102;DHT22;56411;52.964;10.540;2024-01-30T10:23:57;8.00;99.90
16102;DHT22;56411;52.964;10.540;2024-01-30T10:50:01;9.00;99.90
16102;DHT22;56411;52.964;10.540;2024-01-30T11:17:50;9.40;99.90
16102;DHT22;56411;52.964;10.540;2024-01-30T11:20:20;9.50;99.90
16102;DHT22;56411;52.964;10.540;2024-01-30T11:40:05;9.80;99.90
16102;DHT22;56411;52.964;10.540;2024-01-30T11:46:38;9.80;99.90
16102;DHT22;56411;52.964;10.540;2024-01-30T12:36:39;9.20;99.90
16102;DHT22;56411;52.964;10.540;2024-01-30T14:22:56;9.80;99.90
16102;DHT22;56411;52.964;10.540;2024-01-30T16:23:03;9.40;99.90
16102;DHT22;56411;52.964;10.540;2024-01-30T16:25:43;9.50;99.90
16102;DHT22;56411;52.964;10.540;2024-01-30T16:28:35;9.50;99.90
16102;DHT22;56411;52.964;10.540;2024-01-30T16:31:33;9.50;99.90
16102;DHT22;56411;52.964;10.540;2024-01-30T16:34:15;9.60;99.90
16102;DHT22;56411;52.964;10.540;2024-01-30T16:36:46;9.60;99.90
16102;DHT22;56411;52.964;10.540;2024-01-30T16:39:35;9.60;99.90
16102;DHT22;56411;52.964;10.540;2024-01-30T16:42:17;9.70;99.90
16102;DHT22;56411;52.964;10.540;2024-01-30T16:45:11;9.70;99.90
16102;DHT22;56411;52.964;10.540;2024-01-30T16:48:10;9.70;99.90
16102;DHT22;56411;52.964;10.540;2024-01-30T17:21:47;9.60;99.90
16102;DHT22;56411;52.964;10.540;2024-01-30T17:24:14;9.40;99.90
16102;DHT22;56411;52.964;10.540;2024-01-30T17:26:42;9.30;99.90
16102;DHT22;56411;52.964;10.540;2024-01-30T17:29:10;9.30;99.90
16102;DHT22;56411;52.964;10.540;2024-01-30T17:31:42;9.30;99.90
16102;DHT22;56411;52.964;10.540;2024-01-30T17:34:11;9.30;99.90
16102;DHT22;56411;52.964;10.540;2024-01-30T17:36:38;9.30;99.90
16102;DHT22;56411;52.964;10.540;2024-01-30T17:39:08;9.30;99.90
16102;DHT22;56411;52.964;10.540;2024-01-30T17:41:35;9.30;99.90
16102;DHT22;56411;52.964;10.540;2024-01-30T17:44:02;9.30;99.90
16102;DHT22;56411;52.964;10.540;2024-01-30T17:46:29;9.40;99.90
16102;DHT22;56411;52.964;10.540;2024-01-30T17:48:57;9.40;99.90
16102;DHT22;56411;52.964;10.540;2024-01-30T17:51:24;9.30;99.90
16102;DHT22;56411;52.964;10.540;2024-01-30T17:53:52;9.20;99.90
16102;DHT22;56411;52.964;10.540;2024-01-30T17:56:21;9.30;99.90
16102;DHT22;56411;52.964;10.540;2024-01-30T17:58:48;9.30;99.90
16102;DHT22;56411;52.964;10.540;2024-01-30T18:01:16;9.20;99.90
16102;DHT22;56411;52.964;10.540;2024-01-30T18:03:44;9.20;99.90
16102;DHT22;56411;52.964;10.540;2024-01-30T18:06:13;9.20;99.90
16102;DHT22;56411;52.964;10.540;2024-01-30T18:08:42;9.20;99.90
16102;DHT22;56411;52.964;10.540;2024-01-30T18:11:09;9.20;99.90
16102;DHT22;56411;52.964;10.540;2024-01-30T18:13:38;9.20;99.90
16102;DHT22;56411;52.964;10.540;2024-01-30T18:16:06;9.10;99.90
16102;DHT22;56411;52.964;10.540;2024-01-30T18:18:34;9.10;99.90
16102;DHT22;56411;52.964;10.540;2024-01-30T18:21:01;9.10;99.90
16102;DHT22;56411;52.964;10.540;2024-01-30T18:23:29;9.00;99.90
16102;DHT22;56411;52.964;10.540;2024-01-30T18:25:56;9.00;99.90
16102;DHT22;56411;52.964;10.540;2024-01-30T18:28:27;9.00;99.90
16102;DHT22;56411;52.964;10.540;2024-01-30T18:30:58;8.90;99.90
16102;DHT22;56411;52.964;10.540;2024-01-30T18:33:26;8.90;99.90
16102;DHT22;56411;52.964;10.540;2024-01-30T18:35:53;8.80;99.90
16102;DHT22;56411;52.964;10.540;2024-01-30T18:38:20;8.70;99.90
16102;DHT22;56411;52.964;10.540;2024-01-30T18:40:48;8.70;99.90
16102;DHT22;56411;52.964;10.540;2024-01-30T18:43:15;8.60;99.90
16102;DHT22;56411;52.964;10.540;2024-01-30T18:45:47;8.50;99.90
16102;DHT22;56411;52.964;10.540;2024-01-30T18:48:34;8.50;99.90
16102;DHT22;56411;52.964;10.540;2024-01-30T18:51:05;8.50;99.90
16102;DHT22;56411;52.964;10.540;2024-01-30T18:53:33;8.50;99.90
16102;DHT22;56411;52.964;10.540;2024-01-30T18:56:01;8.50;99.90
16102;DHT22;56411;52.964;10.540;2024-01-30T18:58:31;8.50;99.90
16102;DHT22;56411;52.964;10.540;2024-01-30T19:00:58;8.50;99.90
16102;DHT22;56411;52.964;10.540;2024-01-30T19:03:28;8.50;99.90
16102;DHT22;56411;52.964;10.540;2024-01-30T19:06:00;8.50;99.90
16102;DHT22;56411;52.964;10.540;2024-01-30T19:08:52;8.40;99.90
16102;DHT22;56411;52.964;10.540;2024-01-30T19:11:24;8.40;99.90
16102;DHT22;56411;52.964;10.540;2024-01-30T19:14:20;8.30;99.90
16102;DHT22;56411;52.964;10.540;2024-01-30T19:16:47;8.50;99.90
16102;DHT22;56411;52.964;10.540;2024-01-30T19:19:18;8.70;99.90
16102;DHT22;56411;52.964;10.540;2024-01-30T19:21:46;8.90;99.90
16102;DHT22;56411;52.964;10.540;2024-01-30T19:24:13;9.10;99.90
16102;DHT22;56411;52.964;10.540;2024-01-30T19:26:39;9.20;99.90
16102;DHT22;56411;52.964;10.540;2024-01-30T19:29:07;9.20;99.90
16102;DHT22;56411;52.964;10.540;2024-01-30T19:31:34;9.30;99.90
16102;DHT22;56411;52.964;10.540;2024-01-30T19:34:01;9.40;99.90
16102;DHT22;56411;52.964;10.540;2024-01-30T19:36:31;9.40;99.90
16102;DHT22;56411;52.964;10.540;2024-01-30T19:38:58;9.50;99.90
16102;DHT22;56411;52.964;10.540;2024-01-30T19:41:28;9.60;99.90
16102;DHT22;56411;52.964;10.540;2024-01-30T19:43:55;9.50;99.90
16102;DHT22;56411;52.964;10.540;2024-01-30T19:46:23;9.50;99.90
16102;DHT22;56411;52.964;10.540;2024-01-30T19:49:09;9.50;99.90
16102;DHT22;56411;52.964;10.540;2024-01-30T19:55:18;9.40;99.90
16102;DHT22;56411;52.964;10.540;2024-01-30T19:57:46;9.40;99.90
16102;DHT22;56411;52.964;10.540;2024-01-30T20:00:15;9.40;99.90
16102;DHT22;56411;52.964;10.540;2024-01-30T20:03:01;9.40;99.90
16102;DHT22;56411;52.964;10.540;2024-01-30T20:06:03;9.40;99.90
16102;DHT22;56411;52.964;10.540;2024-01-30T20:08:31;9.40;99.90
16102;DHT22;56411;52.964;10.540;2024-01-30T20:11:10;9.30;99.90
16102;DHT22;56411;52.964;10.540;2024-01-30T20:13:42;9.30;99.90
16102;DHT22;56411;52.964;10.540;2024-01-30T20:16:12;9.20;99.90
16102;DHT22;56411;52.964;10.540;2024-01-30T20:18:43;9.20;99.90
16102;DHT22;56411;52.964;10.540;2024-01-30T20:25:13;9.20;99.90
16102;DHT22;56411;52.964;10.540;2024-01-30T20:27:43;9.10;99.90
16102;DHT22;56411;52.964;10.540;2024-01-30T20:30:12;9.10;99.90
16102;DHT22;56411;52.964;10.540;2024-01-30T20:32:49;9.10;99.90
16102;DHT22;56411;52.964;10.540;2024-01-30T20:35:33;9.10;99.90
16102;DHT22;56411;52.964;10.540;2024-01-30T20:38:02;9.10;99.90
16102;DHT22;56411;52.964;10.540;2024-01-30T20:40:32;9.10;99.90
16102;DHT22;56411;52.964;10.540;2024-01-30T20:43:07;9.00;99.90
16102;DHT22;56411;52.964;10.540;2024-01-30T20:45:40;9.00;99.90
16102;DHT22;56411;52.964;10.540;2024-01-30T20:48:56;8.90;99.90
16102;DHT22;56411;52.964;10.540;2024-01-30T20:51:47;8.90;99.90
16102;DHT22;56411;52.964;10.540;2024-01-30T20:54:20;8.90;99.90
16102;DHT22;56411;52.964;10.540;2024-01-30T20:57:05;8.90;99.90
16102;DHT22;56411;52.964;10.540;2024-01-30T20:59:35;8.80;99.90
16102;DHT22;56411;52.964;10.540;2024-01-30T21:02:03;8.80;99.90
16102;DHT22;56411;52.964;10.540;2024-01-30T21:04:30;8.80;99.90
16102;DHT22;56411;52.964;10.540;2024-01-30T21:07:09;8.80;99.90
16102;DHT22;56411;52.964;10.540;2024-01-30T21:09:39;8.80;99.90
16102;DHT22;56411;52.964;10.540;2024-01-30T21:12:21;8.70;99.90
16102;DHT22;56411;52.964;10.540;2024-01-30T21:14:50;8.70;99.90
16102;DHT22;56411;52.964;10.540;2024-01-30T21:17:23;8.70;99.90
16102;DHT22;56411;52.964;10.540;2024-01-30T21:19:51;8.70;99.90
16102;DHT22;56411;52.964;10.540;2024-01-30T21:22:22;8.70;99.90
16102;DHT22;56411;52.964;10.540;2024-01-30T21:24:50;8.60;99.90
16102;DHT22;56411;52.964;10.540;2024-01-30T21:27:19;8.60;99.90
16102;DHT22;56411;52.964;10.540;2024-01-30T21:32:57;8.60;99.90
16102;DHT22;56411;52.964;10.540;2024-01-30T21:35:29;8.60;99.90
16102;DHT22;56411;52.964;10.540;2024-01-30T21:38:02;8.60;99.90
16102;DHT22;56411;52.964;10.540;2024-01-30T21:40:31;8.50;99.90
16102;DHT22;56411;52.964;10.540;2024-01-30T21:42:58;8.50;99.90
16102;DHT22;56411;52.964;10.540;2024-01-30T21:45:33;8.60;99.90
16102;DHT22;56411;52.964;10.540;2024-01-30T21:48:01;8.60;99.90
16102;DHT22;56411;52.964;10.540;2024-01-30T21:50:31;8.60;99.90
16102;DHT22;56411;52.964;10.540;2024-01-30T21:53:18;8.50;99.90
16102;DHT22;56411;52.964;10.540;2024-01-30T21:55:55;8.50;99.90
16102;DHT22;56411;52.964;10.540;2024-01-30T21:58:25;8.50;99.90
16102;DHT22;56411;52.964;10.540;2024-01-30T22:01:08;8.40;99.90
16102;DHT22;56411;52.964;10.540;2024-01-30T22:03:41;8.40;99.90
16102;DHT22;56411;52.964;10.540;2024-01-30T22:06:22;8.30;99.90
16102;DHT22;56411;52.964;10.540;2024-01-30T22:08:52;8.30;99.90
16102;DHT22;56411;52.964;10.540;2024-01-30T22:11:24;8.20;99.90
16102;DHT22;56411;52.964;10.540;2024-01-30T22:17:28;8.00;99.90
16102;DHT22;56411;52.964;10.540;2024-01-30T22:20:00;7.90;99.90
16102;DHT22;56411;52.964;10.540;2024-01-30T22:22:29;7.80;99.90
16102;DHT22;56411;52.964;10.540;2024-01-30T22:24:59;7.70;99.90
16102;DHT22;56411;52.964;10.540;2024-01-30T22:27:27;7.60;99.90
16102;DHT22;56411;52.964;10.540;2024-01-30T22:30:00;7.60;99.90
16102;DHT22;56411;52.964;10.540;2024-01-30T22:32:30;7.60;99.90
16102;DHT22;56411;52.964;10.540;2024-01-30T22:34:58;7.60;99.90
16102;DHT22;56411;52.964;10.540;2024-01-30T22:37:32;7.60;99.90
16102;DHT22;56411;52.964;10.540;2024-01-30T22:40:04;7.60;99.90
16102;DHT22;56411;52.964;10.540;2024-01-30T22:42:48;7.60;99.90
16102;DHT22;56411;52.964;10.540;2024-01-30T22:45:16;7.60;99.90
16102;DHT22;56411;52.964;10.540;2024-01-30T22:47:46;7.60;99.90
16102;DHT22;56411;52.964;10.540;2024-01-30T22:50:14;7.50;99.90
16102;DHT22;56411;52.964;10.540;2024-01-30T22:52:42;7.60;99.90
16102;DHT22;56411;52.964;10.540;2024-01-30T22:55:11;7.50;99.90
16102;DHT22;56411;52.964;10.540;2024-01-30T22:57:43;7.60;99.90
16102;DHT22;56411;52.964;10.540;2024-01-30T23:00:21;7.50;99.90
16102;DHT22;56411;52.964;10.540;2024-01-30T23:03:15;7.60;99.90
16102;DHT22;56411;52.964;10.540;2024-01-30T23:05:44;7.50;99.90
16102;DHT22;56411;52.964;10.540;2024-01-30T23:08:16;7.50;99.90
16102;DHT22;56411;52.964;10.540;2024-01-30T23:10:46;7.60;99.90
16102;DHT22;56411;52.964;10.540;2024-01-30T23:13:24;7.50;99.90
16102;DHT22;56411;52.964;10.540;2024-01-30T23:15:56;7.50;99.90
16102;DHT22;56411;52.964;10.540;2024-01-30T23:18:26;7.40;99.90
16102;DHT22;56411;52.964;10.540;2024-01-30T23:20:54;7.40;99.90
16102;DHT22;56411;52.964;10.540;2024-01-30T23:23:28;7.30;99.90
16102;DHT22;56411;52.964;10.540;2024-01-30T23:26:01;7.20;99.90
16102;DHT22;56411;52.964;10.540;2024-01-30T23:28:34;7.20;99.90
16102;DHT22;56411;52.964;10.540;2024-01-30T23:31:16;7.10;99.90
16102;DHT22;56411;52.964;10.540;2024-01-30T23:34:01;7.00;99.90
16102;DHT22;56411;52.964;10.540;2024-01-30T23:36:43;6.90;99.90
16102;DHT22;56411;52.964;10.540;2024-01-30T23:39:13;6.90;99.90
16102;DHT22;56411;52.964;10.540;2024-01-30T23:41:41;6.80;99.90
16102;DHT22;56411;52.964;10.540;2024-01-30T23:44:08;6.80;99.90
16102;DHT22;56411;52.964;10.540;2024-01-30T23:46:36;6.80;99.90
16102;DHT22;56411;52.964;10.540;2024-01-30T23:49:05;6.80;99.90
16102;DHT22;56411;52.964;10.540;2024-01-30T23:51:33;6.70;99.90
16102;DHT22;56411;52.964;10.540;2024-01-30T23:54:07;6.70;99.90
16102;DHT22;56411;52.964;10.540;2024-01-30T23:56:38;6.70;99.90
16102;DHT22;56411;52.964;10.540;2024-01-30T23:59:05;6.60;99.90
